Time;durP1;ratioP1;P1;durP2;ratioP2;P2;SDS_P1;SDS_P2;PMS_P1;PMS_P2;Temp;Humidity;BMP_temperature;BMP_pressure;BME280_temperature;BME280_humidity;BME280_pressure;Samples;Min_cycle;Max_cycle;Signal;HPM_P1;HPM_P2
2022/04/06 00:02:18;;;;;;;20.00;10.30;;;;;;;8.01;100.00;99457.25;105490;1271;74417;-71
2022/04/06 00:04:52;;;;;;;17.40;9.70;;;;;;;8.01;100.00;99457.55;105662;1271;61882;-72
2022/04/06 00:07:52;;;;;;;;;;;;;;;;;;;;;
2022/04/06 00:10:29;;;;;;;17.00;9.00;;;;;;;8.03;100.00;99450.52;105425;1271;74862;-70
2022/04/06 00:13:20;;;;;;;15.60;7.80;;;;;;;8.03;100.00;99450.97;105327;1274;71388;-70
2022/04/06 00:16:01;;;;;;;12.40;8.10;;;;;;;8.04;100.00;99445.75;105342;1272;73739;-70
2022/04/06 00:18:40;;;;;;;14.00;6.90;;;;;;;8.05;100.00;99448.99;105338;1274;61496;-69
2022/04/06 00:21:13;;;;;;;17.60;9.20;;;;;;;8.06;100.00;99448.20;105410;1274;62398;-68
2022/04/06 00:23:48;;;;;;;11.50;7.60;;;;;;;8.07;100.00;99451.25;105457;1274;75911;-69
2022/04/06 00:26:17;;;;;;;16.50;10.20;;;;;;;8.10;100.00;99451.32;105482;1274;61130;-71
2022/04/06 00:28:44;;;;;;;13.40;7.40;;;;;;;8.12;100.00;99450.21;105491;1274;72981;-69
2022/04/06 00:31:13;;;;;;;12.30;7.40;;;;;;;8.14;100.00;99448.80;105286;1275;61332;-72
2022/04/06 00:33:40;;;;;;;11.80;7.60;;;;;;;8.15;100.00;99453.55;105332;1274;61252;-69
2022/04/06 00:36:12;;;;;;;14.00;7.30;;;;;;;8.15;100.00;99455.11;105376;1274;75908;-69
2022/04/06 00:38:44;;;;;;;13.20;5.90;;;;;;;8.18;100.00;99464.31;105441;1274;72541;-70
2022/04/06 00:41:18;;;;;;;14.70;6.20;;;;;;;8.20;100.00;99460.42;105391;1274;72728;-69
2022/04/06 00:48:49;;;;;;;9.50;5.30;;;;;;;8.13;100.00;99457.29;105631;1263;149496;-74
2022/04/06 00:51:16;;;;;;;14.70;6.70;;;;;;;8.12;100.00;99451.42;105305;1272;61706;-73
2022/04/06 00:53:43;;;;;;;11.90;5.50;;;;;;;8.11;100.00;99450.23;105377;1271;72074;-73
2022/04/06 00:56:10;;;;;;;7.00;4.10;;;;;;;8.10;100.00;99446.09;105413;1271;61254;-73
2022/04/06 00:58:37;;;;;;;12.20;5.30;;;;;;;8.10;100.00;99444.99;105297;1272;61267;-73
2022/04/06 01:01:07;;;;;;;12.90;5.20;;;;;;;8.11;100.00;99442.20;105371;1271;76991;-74
2022/04/06 01:03:34;;;;;;;10.10;5.00;;;;;;;8.12;100.00;99443.46;105271;1273;71868;-73
2022/04/06 01:06:09;;;;;;;10.80;4.50;;;;;;;8.13;100.00;99443.63;105208;1272;73124;-72
2022/04/06 01:08:36;;;;;;;16.40;6.20;;;;;;;8.11;100.00;99443.05;105285;1271;61995;-73
2022/04/06 01:11:05;;;;;;;11.40;6.50;;;;;;;8.10;100.00;99438.61;105380;1273;61242;-73
2022/04/06 01:13:32;;;;;;;13.60;6.30;;;;;;;8.10;100.00;99442.02;105412;1271;74901;-75
2022/04/06 01:15:59;;;;;;;14.70;6.60;;;;;;;8.10;100.00;99438.00;105423;1271;71470;-73
2022/04/06 01:18:25;;;;;;;7.40;4.40;;;;;;;8.11;100.00;99439.99;105428;1272;61266;-73
2022/04/06 01:20:52;;;;;;;12.40;6.00;;;;;;;8.11;100.00;99443.08;105346;1271;61154;-73
2022/04/06 01:23:19;;;;;;;13.90;6.10;;;;;;;8.13;100.00;99445.73;105575;1271;61924;-73
2022/04/06 01:25:49;;;;;;;11.40;5.90;;;;;;;8.13;100.00;99444.16;105409;1271;74814;-73
2022/04/06 01:28:16;;;;;;;11.40;6.40;;;;;;;8.12;100.00;99443.52;105462;1274;73153;-74
2022/04/06 01:30:43;;;;;;;16.70;8.50;;;;;;;8.13;100.00;99444.85;105480;1271;73214;-73
2022/04/06 01:33:10;;;;;;;8.20;5.40;;;;;;;8.10;100.00;99434.10;105203;1273;62077;-73
2022/04/06 01:35:38;;;;;;;17.80;9.60;;;;;;;8.14;100.00;99438.48;105410;1274;61727;-74
2022/04/06 01:38:05;;;;;;;12.20;8.20;;;;;;;8.15;100.00;99441.58;105451;1274;75434;-74
2022/04/06 01:40:33;;;;;;;18.80;9.10;;;;;;;8.17;100.00;99442.93;105361;1272;72456;-75
2022/04/06 01:42:59;;;;;;;12.80;8.50;;;;;;;8.20;100.00;99442.30;105444;1274;74147;-72
2022/04/06 01:45:27;;;;;;;23.50;9.90;;;;;;;8.21;100.00;99445.98;105384;1274;61265;-71
2022/04/06 01:47:53;;;;;;;17.00;10.10;;;;;;;8.25;100.00;99445.15;105437;1274;61846;-73
2022/04/06 01:53:06;;;;;;;17.10;9.20;;;;;;;8.29;100.00;99439.71;105394;1274;71905;-72
2022/04/06 01:55:32;;;;;;;23.20;13.50;;;;;;;8.29;100.00;99435.67;105365;1274;73385;-76
2022/04/06 01:57:59;;;;;;;24.10;13.70;;;;;;;8.30;100.00;99438.53;105386;1274;61122;-73
2022/04/06 02:00:27;;;;;;;25.40;15.40;;;;;;;8.30;100.00;99442.42;105156;1273;61182;-72
2022/04/06 02:02:53;;;;;;;25.60;14.80;;;;;;;8.32;100.00;99439.03;105309;1273;75974;-74
2022/04/06 02:05:21;;;;;;;26.70;14.10;;;;;;;8.34;100.00;99436.08;105324;1274;72374;-74
2022/04/06 02:07:48;;;;;;;27.40;14.80;;;;;;;8.36;100.00;99431.45;105353;1273;71913;-73
2022/04/06 02:10:16;;;;;;;23.90;14.40;;;;;;;8.39;100.00;99431.27;105368;1274;62068;-73
2022/04/06 02:12:44;;;;;;;16.10;9.40;;;;;;;8.41;100.00;99428.91;105373;1274;61749;-72
2022/04/06 02:15:13;;;;;;;23.40;13.10;;;;;;;8.41;100.00;99433.11;105437;1274;74630;-74
2022/04/06 02:17:40;;;;;;;26.90;14.00;;;;;;;8.41;100.00;99431.86;105358;1274;72407;-73
2022/04/06 02:20:07;;;;;;;24.20;11.90;;;;;;;8.43;99.98;99428.02;106616;1273;72943;-73
2022/04/06 02:22:33;;;;;;;24.80;13.00;;;;;;;8.44;99.96;99431.02;105363;1274;61295;-73
2022/04/06 02:25:00;;;;;;;27.70;14.40;;;;;;;8.44;100.00;99423.92;105390;1273;61268;-72
2022/04/06 02:27:27;;;;;;;30.50;16.20;;;;;;;8.44;99.95;99427.16;105337;1271;75011;-71
2022/04/06 02:29:53;;;;;;;31.80;15.50;;;;;;;8.45;99.91;99419.04;105251;1273;70500;-72
2022/04/06 02:32:21;;;;;;;26.60;13.00;;;;;;;8.46;99.91;99413.51;105180;1274;61832;-74
2022/04/06 02:34:52;;;;;;;23.00;13.40;;;;;;;8.46;99.69;99414.34;105342;1274;63045;-71
2022/04/06 02:37:18;;;;;;;29.70;16.40;;;;;;;8.46;99.66;99409.05;105219;1274;62020;-71
2022/04/06 02:39:45;;;;;;;24.50;12.30;;;;;;;8.45;99.65;99407.37;105346;1274;75033;-72
2022/04/06 02:42:12;;;;;;;28.10;14.40;;;;;;;8.45;99.67;99407.17;105320;1273;61221;-71
2022/04/06 02:44:39;;;;;;;20.40;10.90;;;;;;;8.46;99.46;99403.39;105362;1273;73156;-70
2022/04/06 02:47:06;;;;;;;25.20;13.30;;;;;;;8.46;99.49;99395.86;105597;1273;62035;-71
2022/04/06 02:49:33;;;;;;;18.70;10.40;;;;;;;8.46;99.42;99395.17;105413;1271;61648;-72
2022/04/06 02:51:59;;;;;;;24.00;11.00;;;;;;;8.46;99.43;99390.74;104977;1273;397595;-71
2022/04/06 02:54:26;;;;;;;31.20;14.90;;;;;;;8.46;99.27;99389.68;105203;1271;71067;-74
2022/04/06 02:56:52;;;;;;;26.50;10.50;;;;;;;8.47;99.40;99389.62;105111;1274;61259;-72
2022/04/06 02:59:19;;;;;;;26.90;15.70;;;;;;;8.47;98.89;99386.70;105339;1274;60590;-72
2022/04/06 03:01:46;;;;;;;23.60;12.80;;;;;;;8.47;98.84;99396.37;105192;1274;61603;-72
2022/04/06 03:04:13;;;;;;;26.10;13.80;;;;;;;8.48;98.83;99386.02;105348;1274;76861;-72
2022/04/06 03:06:40;;;;;;;26.70;13.50;;;;;;;8.49;98.44;99388.41;105222;1274;73905;-72
2022/04/06 03:09:07;;;;;;;18.40;12.50;;;;;;;8.50;98.39;99383.00;105418;1271;74128;-72
2022/04/06 03:11:35;;;;;;;30.40;14.80;;;;;;;8.51;97.91;99385.38;105365;1271;61977;-71
2022/04/06 03:14:02;;;;;;;21.20;10.30;;;;;;;8.52;97.72;99377.09;105124;1274;61241;-73
2022/04/06 03:16:29;;;;;;;27.00;15.80;;;;;;;8.53;97.66;99376.56;105378;1273;75930;-71
2022/04/06 03:19:05;;;;;;;32.40;16.10;;;;;;;8.53;97.26;99376.36;105331;1273;72434;-73
2022/04/06 03:21:39;;;;;;;32.50;14.50;;;;;;;8.55;96.90;99375.52;105201;1274;74109;-74
2022/04/06 03:24:26;;;;;;;28.60;13.70;;;;;;;8.55;96.69;99375.45;105165;1274;62230;-72
2022/04/06 03:26:53;;;;;;;24.50;15.50;;;;;;;8.57;96.23;99369.96;105389;1274;61624;-73
2022/04/06 03:29:19;;;;;;;28.20;15.50;;;;;;;8.58;96.38;99367.69;105344;1274;75020;-73
2022/04/06 03:31:46;;;;;;;28.00;15.30;;;;;;;8.59;96.16;99366.97;105299;1274;71144;-74
2022/04/06 03:34:13;;;;;;;27.60;17.10;;;;;;;8.58;96.04;99365.59;105020;1275;71748;-69
2022/04/06 03:36:40;;;;;;;30.00;15.90;;;;;;;8.60;95.89;99366.48;105364;1274;63315;-71
2022/04/06 03:39:06;;;;;;;22.10;11.40;;;;;;;8.60;95.76;99366.48;105444;1273;61256;-71
2022/04/06 03:41:33;;;;;;;22.20;12.90;;;;;;;8.59;95.60;99369.16;105352;1273;61227;-71
2022/04/06 03:43:59;;;;;;;27.00;15.70;;;;;;;8.61;95.33;99364.77;105126;1274;61313;-70
2022/04/06 03:46:26;;;;;;;32.50;17.50;;;;;;;8.61;94.93;99362.65;105286;1274;61275;-75
2022/04/06 03:48:53;;;;;;;25.70;14.00;;;;;;;8.62;94.94;99359.86;105278;1274;61907;-72
2022/04/06 03:51:20;;;;;;;32.40;17.40;;;;;;;8.63;94.60;99359.04;105236;1274;61472;-73
2022/04/06 03:53:46;;;;;;;29.80;15.70;;;;;;;8.63;94.73;99358.47;105143;1274;61226;-74
2022/04/06 03:56:13;;;;;;;30.60;14.50;;;;;;;8.63;94.53;99358.32;105157;1273;61279;-73
2022/04/06 03:58:39;;;;;;;25.60;16.20;;;;;;;8.63;94.25;99361.45;105279;1274;61448;-72
2022/04/06 04:01:06;;;;;;;28.10;14.40;;;;;;;8.64;93.95;99358.00;105055;1275;61275;-73
2022/04/06 04:03:33;;;;;;;31.70;16.70;;;;;;;8.66;93.42;99364.44;105219;1274;61712;-75
2022/04/06 04:05:59;;;;;;;33.00;18.00;;;;;;;8.69;93.16;99362.09;105229;1273;74923;-71
2022/04/06 04:08:27;;;;;;;35.10;17.00;;;;;;;8.69;93.44;99357.30;105202;1273;61258;-72
2022/04/06 04:10:54;;;;;;;26.30;16.20;;;;;;;8.68;93.60;99360.30;105205;1274;74676;-73
2022/04/06 04:13:21;;;;;;;32.10;15.10;;;;;;;8.67;93.36;99365.58;105034;1274;61373;-72
2022/04/06 04:15:48;;;;;;;31.60;18.10;;;;;;;8.66;93.59;99356.02;105158;1274;61246;-75
2022/04/06 04:18:16;;;;;;;29.80;16.60;;;;;;;8.64;93.17;99355.52;104999;1274;75178;-74
2022/04/06 04:20:45;;;;;;;31.70;18.70;;;;;;;8.65;92.88;99359.63;105164;1274;72455;-72
2022/04/06 04:23:12;;;;;;;31.60;16.10;;;;;;;8.65;93.02;99356.63;105190;1274;72966;-73
2022/04/06 04:25:39;;;;;;;28.00;16.50;;;;;;;8.65;92.72;99358.80;105392;1274;62041;-73
2022/04/06 04:28:05;;;;;;;35.20;17.30;;;;;;;8.64;92.81;99354.46;105180;1273;61168;-72
2022/04/06 04:30:33;;;;;;;32.80;16.50;;;;;;;8.64;92.86;99361.24;105168;1272;75147;-77
2022/04/06 04:32:59;;;;;;;31.40;18.70;;;;;;;8.63;92.41;99358.28;105397;1274;72524;-71
2022/04/06 04:35:26;;;;;;;21.20;13.00;;;;;;;8.63;92.23;99360.71;105246;1273;74045;-71
2022/04/06 04:37:53;;;;;;;20.60;12.40;;;;;;;8.64;92.07;99362.43;105310;1274;62414;-73
2022/04/06 04:40:21;;;;;;;35.70;16.60;;;;;;;8.64;91.94;99359.75;105307;1274;61329;-71
2022/04/06 04:42:48;;;;;;;32.90;17.40;;;;;;;8.63;92.00;99357.59;105379;1274;76014;-73
2022/04/06 04:45:14;;;;;;;28.50;17.90;;;;;;;8.63;91.76;99350.95;105313;1274;72417;-72
2022/04/06 04:47:41;;;;;;;26.90;17.20;;;;;;;8.63;91.61;99355.48;105144;1274;73248;-72
2022/04/06 04:50:09;;;;;;;35.10;19.10;;;;;;;8.64;91.20;99351.86;105482;1274;62268;-73
2022/04/06 04:52:35;;;;;;;30.40;17.50;;;;;;;8.64;91.23;99350.97;105277;1274;61134;-72
2022/04/06 04:55:02;;;;;;;32.40;20.30;;;;;;;8.64;91.46;99352.91;105353;1274;76353;-72
2022/04/06 04:57:29;;;;;;;38.60;19.90;;;;;;;8.63;90.99;99357.06;105151;1274;72451;-71
2022/04/06 04:59:55;;;;;;;41.10;21.60;;;;;;;8.63;91.02;99358.56;105119;1272;73277;-71
2022/04/06 05:02:22;;;;;;;32.90;17.60;;;;;;;8.62;90.99;99353.35;105064;1274;61270;-71
2022/04/06 05:04:49;;;;;;;29.50;18.20;;;;;;;8.61;91.04;99355.54;105190;1274;61411;-73
2022/04/06 05:07:15;;;;;;;31.80;17.50;;;;;;;8.61;90.92;99353.66;105355;1274;61275;-75
2022/04/06 05:09:42;;;;;;;30.80;17.40;;;;;;;8.60;91.02;99361.52;105179;1274;71677;-74
2022/04/06 05:12:09;;;;;;;26.70;15.50;;;;;;;8.59;90.49;99365.30;105278;1273;73002;-75
2022/04/06 05:14:36;;;;;;;29.00;14.80;;;;;;;8.61;90.57;99358.63;105210;1274;63413;-72
2022/04/06 05:17:02;;;;;;;32.70;19.50;;;;;;;8.60;90.61;99358.83;105168;1273;61348;-73
2022/04/06 05:19:29;;;;;;;31.60;20.50;;;;;;;8.60;90.57;99359.77;105237;1274;75414;-73
2022/04/06 05:21:59;;;;;;;34.80;20.90;;;;;;;8.61;89.97;99376.92;105384;1274;72406;-73
2022/04/06 05:24:26;;;;;;;26.20;14.10;;;;;;;8.62;89.83;99367.10;105185;1274;73083;-74
2022/04/06 05:26:52;;;;;;;29.80;17.70;;;;;;;8.63;89.84;99359.89;105098;1274;62490;-74
2022/04/06 05:29:19;;;;;;;28.50;16.00;;;;;;;8.63;89.95;99370.45;105084;1275;61263;-73
2022/04/06 05:31:46;;;;;;;29.50;14.80;;;;;;;8.64;89.62;99363.09;105263;1274;75029;-73
2022/04/06 05:34:12;;;;;;;24.00;13.50;;;;;;;8.64;90.07;99361.00;105249;1274;72554;-70
2022/04/06 05:36:39;;;;;;;27.70;14.10;;;;;;;8.63;90.59;99370.28;105183;1274;62756;-70
2022/04/06 05:39:07;;;;;;;21.30;12.30;;;;;;;8.61;90.86;99377.18;105201;1274;61372;-71
2022/04/06 05:41:41;;;;;;;17.50;10.30;;;;;;;8.56;92.48;99377.98;105079;1274;61240;-72
2022/04/06 05:44:08;;;;;;;24.30;14.20;;;;;;;8.49;93.64;99373.58;105377;1274;74996;-72
2022/04/06 05:46:35;;;;;;;21.10;12.30;;;;;;;8.43;94.34;99363.49;105190;1273;61263;-73
2022/04/06 05:49:01;;;;;;;23.10;13.40;;;;;;;8.36;94.95;99374.64;105569;1274;73267;-72
2022/04/06 05:51:28;;;;;;;24.50;15.20;;;;;;;8.34;94.93;99365.48;105452;1273;62063;-72
2022/04/06 05:53:55;;;;;;;34.80;19.90;;;;;;;8.31;95.39;99369.89;105239;1274;61588;-71
2022/04/06 05:56:24;;;;;;;26.60;16.40;;;;;;;8.28;95.89;99366.05;105302;1274;74285;-71
2022/04/06 05:58:51;;;;;;;37.80;20.90;;;;;;;8.26;96.10;99368.76;105536;1274;72093;-73
2022/04/06 06:01:17;;;;;;;47.90;24.00;;;;;;;8.25;96.50;99372.98;105419;1274;61422;-72
2022/04/06 06:03:44;;;;;;;42.70;21.20;;;;;;;8.21;97.40;99370.05;105417;1274;63774;-71
2022/04/06 06:06:11;;;;;;;34.70;18.80;;;;;;;8.15;98.37;99374.24;105510;1274;61306;-73
2022/04/06 06:08:38;;;;;;;30.80;16.60;;;;;;;8.11;98.59;99375.02;105348;1274;76013;-72
2022/04/06 06:11:05;;;;;;;31.10;15.00;;;;;;;8.06;98.66;99374.33;105102;1273;71400;-74
2022/04/06 06:13:31;;;;;;;31.00;15.40;;;;;;;8.04;99.07;99379.71;105273;1273;72756;-71
2022/04/06 06:16:00;;;;;;;31.90;16.50;;;;;;;8.03;98.95;99376.33;105326;1273;62210;-71
2022/04/06 06:18:27;;;;;;;22.70;13.50;;;;;;;8.04;98.95;99374.91;105053;1274;62659;-71
2022/04/06 06:20:56;;;;;;;34.30;16.30;;;;;;;8.06;98.93;99369.59;105233;1273;74965;-70
2022/04/06 06:23:23;;;;;;;26.20;15.10;;;;;;;8.06;98.09;99372.22;105362;1274;72416;-70
2022/04/06 06:25:50;;;;;;;30.10;17.10;;;;;;;8.08;98.17;99365.36;105208;1274;72870;-73
2022/04/06 06:28:17;;;;;;;35.90;18.90;;;;;;;8.09;97.82;99368.51;105225;1274;62820;-73
2022/04/06 06:30:45;;;;;;;29.00;17.00;;;;;;;8.11;97.20;99364.54;105111;1274;61608;-72
2022/04/06 06:33:13;;;;;;;30.30;12.60;;;;;;;8.13;97.04;99367.60;105352;1273;73618;-72
2022/04/06 06:35:39;;;;;;;31.70;16.20;;;;;;;8.16;96.32;99362.43;105246;1272;71458;-71
2022/04/06 06:38:06;;;;;;;27.50;17.10;;;;;;;8.20;96.04;99367.37;105293;1274;73116;-71
2022/04/06 06:40:33;;;;;;;26.00;15.60;;;;;;;8.24;95.63;99361.24;105209;1274;63302;-71
2022/04/06 06:43:00;;;;;;;32.00;15.20;;;;;;;8.28;95.25;99360.39;105288;1274;61791;-72
2022/04/06 06:45:26;;;;;;;25.50;15.00;;;;;;;8.33;95.19;99359.49;105218;1274;61315;-71
2022/04/06 06:47:53;;;;;;;23.30;13.70;;;;;;;8.39;94.33;99356.24;105137;1274;71667;-69
2022/04/06 06:50:20;;;;;;;19.50;12.70;;;;;;;8.44;93.37;99359.08;105055;1274;73305;-72
2022/04/06 06:52:47;;;;;;;27.80;14.00;;;;;;;8.50;93.05;99359.52;105167;1274;62234;-73
2022/04/06 06:55:15;;;;;;;26.10;15.70;;;;;;;8.55;92.98;99358.45;105465;1274;61120;-68
2022/04/06 06:57:42;;;;;;;25.60;14.00;;;;;;;8.59;92.28;99363.19;105403;1274;74895;-71
2022/04/06 07:00:12;;;;;;;27.20;12.00;;;;;;;8.65;92.12;99354.58;105220;1273;71521;-71
2022/04/06 07:02:40;;;;;;;25.10;14.10;;;;;;;8.70;91.55;99354.73;105035;1274;72772;-72
2022/04/06 07:05:09;;;;;;;31.00;17.00;;;;;;;8.75;91.19;99348.53;105333;1273;63286;-71
2022/04/06 07:07:56;;;;;;;28.80;16.50;;;;;;;8.79;90.54;99350.80;105243;1273;61129;-70
2022/04/06 07:10:24;;;;;;;25.50;14.30;;;;;;;8.86;89.91;99348.33;105212;1274;75106;-69
2022/04/06 07:12:52;;;;;;;23.90;15.20;;;;;;;8.90;89.10;99345.80;105279;1274;71660;-71
2022/04/06 07:15:20;;;;;;;28.10;14.00;;;;;;;8.95;88.12;99349.23;105154;1274;73028;-71
2022/04/06 07:17:54;;;;;;;19.80;11.30;;;;;;;9.00;88.57;99348.00;105264;1274;61945;-73
2022/04/06 07:20:22;;;;;;;24.90;13.90;;;;;;;9.03;87.54;99340.73;105194;1273;62165;-68
2022/04/06 07:22:50;;;;;;;25.50;14.60;;;;;;;9.08;86.75;99345.50;105404;1274;74921;-73
2022/04/06 07:25:18;;;;;;;27.60;13.70;;;;;;;9.12;85.95;99344.09;105244;1274;73257;-72
2022/04/06 07:27:45;;;;;;;20.80;12.30;;;;;;;9.16;84.83;99341.91;105291;1273;73166;-71
2022/04/06 07:30:16;;;;;;;23.70;14.50;;;;;;;9.22;85.15;99342.13;105257;1274;62254;-70
2022/04/06 07:32:43;;;;;;;22.80;13.20;;;;;;;9.24;84.47;99339.19;105301;1274;61469;-70
2022/04/06 07:35:10;;;;;;;18.40;12.50;;;;;;;9.26;83.64;99337.21;105270;1273;75986;-70
2022/04/06 07:37:45;;;;;;;26.90;17.00;;;;;;;9.26;84.01;99340.15;105234;1271;70077;-70
2022/04/06 07:40:13;;;;;;;21.90;13.40;;;;;;;9.28;83.40;99334.36;105416;1274;73992;-70
2022/04/06 07:42:41;;;;;;;21.20;11.60;;;;;;;9.30;82.75;99340.04;105320;1274;63528;-69
2022/04/06 07:45:10;;;;;;;12.10;7.70;;;;;;;9.33;81.77;99334.46;105237;1273;62235;-71
2022/04/06 07:47:37;;;;;;;21.70;11.80;;;;;;;9.41;81.62;99328.52;105436;1274;74994;-70
2022/04/06 07:50:05;;;;;;;23.10;13.40;;;;;;;9.51;81.45;99318.20;105322;1274;72426;-71
2022/04/06 07:52:32;;;;;;;15.20;10.70;;;;;;;9.59;80.33;99321.85;105273;1273;74245;-73
2022/04/06 07:54:59;;;;;;;16.50;11.10;;;;;;;9.67;79.63;99334.44;105431;1272;62445;-69
2022/04/06 07:57:27;;;;;;;13.90;9.20;;;;;;;9.74;79.55;99327.73;105377;1273;61841;-72
2022/04/06 07:59:55;;;;;;;14.40;8.80;;;;;;;9.77;79.32;99328.86;105336;1274;76019;-69
2022/04/06 08:02:22;;;;;;;15.20;8.70;;;;;;;9.78;78.23;99328.70;105386;1274;70371;-70
2022/04/06 08:04:50;;;;;;;26.70;14.00;;;;;;;9.83;78.16;99331.48;105214;1274;72440;-71
2022/04/06 08:07:17;;;;;;;23.00;13.40;;;;;;;9.86;76.95;99339.09;105702;1274;61927;-70
2022/04/06 08:09:46;;;;;;;19.40;12.70;;;;;;;9.88;77.09;99336.08;105353;1273;62241;-71
2022/04/06 08:12:12;;;;;;;13.70;8.40;;;;;;;9.92;77.00;99345.30;105432;1274;74632;-72
2022/04/06 08:14:39;;;;;;;19.50;10.60;;;;;;;9.91;75.44;99343.86;105412;1274;70796;-69
2022/04/06 08:17:06;;;;;;;13.80;8.30;;;;;;;9.87;75.05;99355.27;105681;1272;73093;-75
2022/04/06 08:19:33;;;;;;;16.80;10.40;;;;;;;9.80;75.15;99346.83;105283;1274;62094;-73
2022/04/06 08:22:00;;;;;;;31.00;15.50;;;;;;;9.77;75.22;99344.05;105558;1274;61250;-74
2022/04/06 08:24:31;;;;;;;22.50;13.30;;;;;;;9.81;75.81;99344.42;105404;1274;74915;-73
2022/04/06 08:26:57;;;;;;;16.00;10.60;;;;;;;9.78;75.35;99339.89;105260;1273;61273;-74
2022/04/06 08:29:24;;;;;;;19.30;11.00;;;;;;;9.76;75.52;99342.06;105266;1274;61360;-71
2022/04/06 08:31:50;;;;;;;25.30;14.40;;;;;;;9.74;75.90;99344.34;105180;1274;62038;-73
2022/04/06 08:34:17;;;;;;;31.00;16.40;;;;;;;9.68;75.33;99338.38;105324;1272;61390;-72
2022/04/06 08:36:45;;;;;;;17.30;10.80;;;;;;;9.69;75.99;99340.11;105252;1273;61385;-77
2022/04/06 08:39:12;;;;;;;34.00;16.70;;;;;;;9.73;75.12;99342.42;105325;1274;71479;-76
2022/04/06 08:41:38;;;;;;;18.80;8.80;;;;;;;9.81;75.25;99333.27;105456;1274;74010;-79
2022/04/06 08:44:06;;;;;;;16.80;11.40;;;;;;;9.86;74.00;99336.20;105491;1274;61243;-76
2022/04/06 08:46:36;;;;;;;11.10;6.60;;;;;;;9.91;73.30;99329.80;105291;1274;61553;-75
2022/04/06 08:49:04;;;;;;;8.80;4.60;;;;;;;9.95;72.32;99325.81;105351;1274;75643;-77
2022/04/06 08:51:34;;;;;;;10.40;7.40;;;;;;;10.04;72.64;99322.75;105560;1274;71422;-77
2022/04/06 08:54:04;;;;;;;16.90;10.30;;;;;;;10.08;72.48;99334.06;105363;1273;72945;-77
2022/04/06 08:56:33;;;;;;;11.30;7.50;;;;;;;10.09;71.16;99323.27;105400;1274;63260;-73
2022/04/06 08:59:08;;;;;;;18.70;11.80;;;;;;;10.08;71.14;99321.48;105206;1274;61185;-74
2022/04/06 09:01:35;;;;;;;8.40;5.50;;;;;;;10.05;70.78;99330.45;105239;1273;76256;-73
2022/04/06 09:04:04;;;;;;;12.50;7.90;;;;;;;10.00;70.11;99328.88;105363;1272;73078;-76
2022/04/06 09:06:51;;;;;;;7.10;4.80;;;;;;;9.95;70.02;99323.48;105295;1273;75848;-73
2022/04/06 09:09:24;;;;;;;8.00;4.80;;;;;;;9.92;69.87;99330.98;105463;1274;61275;-77
2022/04/06 09:11:51;;;;;;;12.50;4.40;;;;;;;9.90;70.24;99332.45;105221;1275;62725;-76
2022/04/06 09:14:30;;;;;;;8.50;5.00;;;;;;;9.86;69.81;99337.06;105551;1274;74849;-74
2022/04/06 09:17:05;;;;;;;6.90;3.50;;;;;;;9.93;70.77;99326.82;105369;1274;72377;-75
2022/04/06 09:19:38;;;;;;;7.80;4.70;;;;;;;10.00;69.71;99322.92;105598;1274;72869;-74
2022/04/06 09:22:07;;;;;;;7.70;4.20;;;;;;;10.06;70.07;99325.08;105385;1274;62255;-77
2022/04/06 09:24:33;;;;;;;9.80;4.70;;;;;;;10.03;69.90;99326.39;106130;1274;61223;-78
2022/04/06 09:27:03;;;;;;;10.40;4.60;;;;;;;9.99;70.42;99330.33;105488;1274;75953;-77
2022/04/06 09:29:31;;;;;;;8.10;4.70;;;;;;;9.96;70.74;99331.71;105233;1274;71538;-77
2022/04/06 09:32:10;;;;;;;6.10;3.80;;;;;;;9.88;70.70;99336.16;105226;1274;72834;-79
2022/04/06 09:34:57;;;;;;;10.70;5.40;;;;;;;9.82;71.41;99336.02;105204;1274;61260;-84
2022/04/06 09:37:31;;;;;;;9.00;4.30;;;;;;;9.83;71.84;99322.91;105076;1274;61346;-76
2022/04/06 09:40:08;;;;;;;9.70;4.30;;;;;;;9.84;71.59;99333.99;105220;1273;74919;-80
2022/04/06 09:42:35;;;;;;;9.80;6.40;;;;;;;9.80;71.81;99333.63;105422;1274;70753;-76
2022/04/06 09:48:01;;;;;;;13.20;7.80;;;;;;;9.75;72.68;99331.27;106022;1273;63346;-79
2022/04/06 09:50:28;;;;;;;14.40;6.70;;;;;;;9.74;73.20;99325.98;105741;1274;63382;-75
2022/04/06 09:52:57;;;;;;;9.00;4.50;;;;;;;9.71;73.06;99323.60;105465;1274;74908;-77
2022/04/06 09:55:24;;;;;;;9.70;4.20;;;;;;;9.68;73.28;99331.59;106060;1274;71543;-75
2022/04/06 09:57:56;;;;;;;11.70;5.50;;;;;;;9.63;73.36;99326.61;105327;1273;72956;-75
2022/04/06 10:00:25;;;;;;;18.80;7.50;;;;;;;9.61;73.42;99314.92;105090;1273;62472;-76
2022/04/06 10:02:54;;;;;;;14.00;5.70;;;;;;;9.58;73.23;99341.10;105239;1274;61256;-75
2022/04/06 10:05:24;;;;;;;9.90;3.90;;;;;;;9.54;73.71;99323.59;105344;1273;74565;-77
2022/04/06 10:08:09;;;;;;;6.60;3.90;;;;;;;9.53;74.26;99319.92;105500;1273;71243;-79
2022/04/06 10:10:40;;;;;;;;;;;;;;;9.48;73.74;99328.47;105963;1271;74397;-78
2022/04/06 10:13:08;;;;;;;6.80;3.80;;;;;;;9.45;73.93;99332.05;105424;1274;62469;-74
2022/04/06 10:15:57;;;;;;;9.40;4.00;;;;;;;9.45;73.95;99331.15;105275;1273;63240;-71
2022/04/06 10:18:31;;;;;;;9.80;4.80;;;;;;;9.50;73.90;99329.04;105341;1274;75367;-72
2022/04/06 10:21:14;;;;;;;8.60;4.90;;;;;;;9.59;72.92;99327.91;105197;1273;72408;-70
2022/04/06 10:23:51;;;;;;;9.40;4.40;;;;;;;9.64;72.30;99326.13;105214;1274;72945;-71
2022/04/06 10:26:37;;;;;;;5.00;3.60;;;;;;;9.68;71.82;99322.63;105299;1274;61343;-71
2022/04/06 10:29:08;;;;;;;6.10;3.90;;;;;;;9.71;71.02;99331.95;105007;1273;61686;-71
2022/04/06 10:31:35;;;;;;;7.10;3.60;;;;;;;9.77;71.64;99314.97;104976;1274;76389;-69
2022/04/06 10:34:32;;;;;;;6.10;4.30;;;;;;;9.78;71.78;99307.91;105013;1274;61717;-69
2022/04/06 10:37:18;;;;;;;4.80;4.20;;;;;;;9.70;71.58;99302.58;105707;1265;153693;-72
2022/04/06 10:40:02;;;;;;;7.90;5.20;;;;;;;9.70;71.57;99309.55;105294;1274;61189;-72
2022/04/06 10:42:42;;;;;;;10.80;4.20;;;;;;;9.62;71.55;99320.30;105212;1274;62476;-74
2022/04/06 10:45:29;;;;;;;10.10;5.00;;;;;;;9.51;71.65;99313.48;105268;1273;75520;-73
2022/04/06 10:48:15;;;;;;;9.90;4.40;;;;;;;9.45;72.19;99308.21;105256;1274;72441;-74
2022/04/06 10:50:47;;;;;;;7.30;3.70;;;;;;;9.44;72.70;99303.95;105295;1273;74197;-73
2022/04/06 10:53:22;;;;;;;8.30;4.40;;;;;;;9.43;73.25;99303.59;105342;1273;61330;-74
2022/04/06 10:56:11;;;;;;;8.40;4.70;;;;;;;9.41;73.42;99296.80;105320;1273;62434;-74
2022/04/06 10:58:56;;;;;;;9.00;3.60;;;;;;;9.41;73.85;99309.45;105109;1273;73911;-74
2022/04/06 11:01:30;;;;;;;6.20;3.20;;;;;;;9.39;73.50;99298.56;105358;1274;72442;-74
2022/04/06 11:04:01;;;;;;;6.50;3.80;;;;;;;9.41;73.51;99297.67;105100;1274;72887;-73
2022/04/06 11:10:06;;;;;;;8.50;3.60;;;;;;;9.43;73.35;99296.59;105341;1274;62233;-73
2022/04/06 11:10:09;;;;;;;7.40;3.80;;;;;;;9.51;73.62;99295.77;105038;1274;61714;-74
2022/04/06 11:13:06;;;;;;;4.90;3.40;;;;;;;9.48;73.42;99292.29;105360;1272;75986;-73
2022/04/06 11:15:41;;;;;;;5.00;3.20;;;;;;;9.54;74.22;99284.98;105081;1261;144933;-72
2022/04/06 11:18:47;;;;;;;9.30;4.70;;;;;;;9.54;74.12;99281.55;105077;1271;72990;-72
2022/04/06 11:21:15;;;;;;;6.80;4.90;;;;;;;9.64;74.10;99280.70;105089;1271;62019;-71
2022/04/06 11:23:42;;;;;;;7.90;3.70;;;;;;;9.73;73.93;99279.20;104875;1271;61556;-75
2022/04/06 11:26:09;;;;;;;4.80;3.40;;;;;;;9.76;73.35;99280.20;105018;1271;75916;-71
2022/04/06 11:28:36;;;;;;;6.40;3.50;;;;;;;9.79;73.38;99270.85;105059;1273;72065;-71
2022/04/06 11:31:06;;;;;;;8.00;3.40;;;;;;;9.79;73.32;99274.76;104994;1273;73055;-74
2022/04/06 11:33:41;;;;;;;3.40;2.60;;;;;;;9.84;72.95;99275.54;105065;1273;63338;-72
2022/04/06 11:36:12;;;;;;;8.10;4.30;;;;;;;9.89;72.46;99263.62;105060;1273;61929;-72
2022/04/06 11:38:40;;;;;;;6.10;3.40;;;;;;;10.11;72.05;99258.41;105187;1273;74983;-71
2022/04/06 11:41:07;;;;;;;7.30;3.90;;;;;;;10.38;71.65;99257.46;105160;1273;72506;-70
2022/04/06 11:43:40;;;;;;;6.70;3.50;;;;;;;10.68;70.89;99262.30;104969;1273;71961;-74
2022/04/06 11:46:08;;;;;;;6.20;3.20;;;;;;;10.79;69.33;99261.32;105128;1273;61932;-70